Time;durP1;ratioP1;P1;durP2;ratioP2;P2;SDS_P1;SDS_P2;PMS_P1;PMS_P2;Temp;Humidity;BMP_temperature;BMP_pressure;BME280_temperature;BME280_humidity;BME280_pressure;Samples;Min_cycle;Max_cycle;Signal;HPM_P1;HPM_P2
2022/12/16 00:00:22;;;;;;;38.92;16.27;;;0.30;99.90;;;;;;5017825;28;20084;-70
2022/12/16 00:02:47;;;;;;;33.85;14.18;;;0.40;99.90;;;;;;5018503;28;20509;-70
2022/12/16 00:05:13;;;;;;;32.83;12.80;;;0.50;99.90;;;;;;5022647;28;20037;-70
2022/12/16 00:07:39;;;;;;;36.58;13.63;;;0.50;99.90;;;;;;5020265;28;20506;-70
2022/12/16 00:10:05;;;;;;;26.30;12.25;;;0.60;99.90;;;;;;5006406;28;20050;-70
2022/12/16 00:12:31;;;;;;;27.75;11.38;;;0.60;99.90;;;;;;5004149;28;20038;-70
2022/12/16 00:14:56;;;;;;;27.67;11.57;;;0.60;99.90;;;;;;5021189;28;20029;-70
2022/12/16 00:17:22;;;;;;;25.70;10.65;;;0.60;99.90;;;;;;5020520;28;20038;-70
2022/12/16 00:19:48;;;;;;;27.20;11.02;;;0.60;99.90;;;;;;5022683;28;20079;-71
2022/12/16 00:22:13;;;;;;;24.42;9.65;;;0.50;99.90;;;;;;5018861;28;20049;-71
2022/12/16 00:24:39;;;;;;;23.73;10.15;;;0.50;99.90;;;;;;5023624;28;20578;-70
2022/12/16 00:27:04;;;;;;;25.42;11.70;;;0.40;99.90;;;;;;5014976;28;20089;-70
2022/12/16 00:29:30;;;;;;;21.67;9.95;;;0.40;99.90;;;;;;5021621;28;20487;-69
2022/12/16 00:31:55;;;;;;;18.60;8.40;;;0.30;99.90;;;;;;5021202;28;20092;-70
2022/12/16 00:34:21;;;;;;;16.08;7.82;;;0.30;99.90;;;;;;5018501;28;20033;-70
2022/12/16 00:36:47;;;;;;;17.58;8.10;;;0.30;99.90;;;;;;5021469;28;20383;-70
2022/12/16 00:39:12;;;;;;;12.13;5.93;;;0.30;99.90;;;;;;5021610;28;20076;-71
2022/12/16 00:41:38;;;;;;;11.70;6.10;;;0.40;99.90;;;;;;5022395;28;20556;-71
2022/12/16 00:44:03;;;;;;;12.73;5.38;;;0.40;99.90;;;;;;5027257;28;20041;-70
2022/12/16 00:46:29;;;;;;;13.40;4.22;;;0.50;99.90;;;;;;5022289;28;20033;-71
2022/12/16 00:48:55;;;;;;;12.52;4.05;;;0.60;99.90;;;;;;5020291;28;20168;-70
2022/12/16 00:51:20;;;;;;;13.50;5.05;;;0.70;99.90;;;;;;5019681;28;20049;-71
2022/12/16 00:53:46;;;;;;;11.43;4.07;;;0.70;99.90;;;;;;5021300;28;20357;-70
2022/12/16 00:56:17;;;;;;;12.55;4.75;;;0.80;99.90;;;;;;5000738;28;20061;-71
2022/12/16 00:58:43;;;;;;;8.63;4.20;;;0.90;99.90;;;;;;5021884;28;20501;-70
2022/12/16 01:01:08;;;;;;;8.25;2.92;;;1.10;99.90;;;;;;5018794;28;20030;-69
2022/12/16 01:03:35;;;;;;;6.13;3.35;;;1.10;99.90;;;;;;5021948;28;20075;-70
2022/12/16 01:06:00;;;;;;;9.40;3.60;;;1.20;99.90;;;;;;5019002;28;20042;-71
2022/12/16 01:08:26;;;;;;;6.35;3.10;;;1.20;99.90;;;;;;5021051;28;20564;-70
2022/12/16 01:10:54;;;;;;;5.80;2.50;;;1.20;99.90;;;;;;5020620;28;20064;-70
2022/12/16 01:13:21;;;;;;;13.88;3.50;;;1.20;99.90;;;;;;5019031;28;20064;-70
2022/12/16 01:15:47;;;;;;;7.60;3.08;;;1.20;99.90;;;;;;5020651;28;20414;-71
2022/12/16 01:18:13;;;;;;;9.85;2.75;;;1.20;99.90;;;;;;5018585;28;20038;-70
2022/12/16 01:20:38;;;;;;;5.10;2.22;;;1.20;99.90;;;;;;5022439;28;20401;-70
2022/12/16 01:23:04;;;;;;;11.77;2.67;;;1.20;99.90;;;;;;5017850;28;20040;-70
2022/12/16 01:25:30;;;;;;;5.55;1.85;;;1.20;99.90;;;;;;5018748;28;20033;-70
2022/12/16 01:27:56;;;;;;;8.02;2.13;;;1.20;99.90;;;;;;5020863;28;20065;-69
2022/12/16 01:30:22;;;;;;;4.68;1.63;;;1.20;99.90;;;;;;5018035;28;20454;-70
2022/12/16 01:32:47;;;;;;;4.10;1.73;;;1.20;99.90;;;;;;5020032;28;20049;-71
2022/12/16 01:35:13;;;;;;;3.90;1.25;;;1.20;99.90;;;;;;5019861;28;20124;-71
2022/12/16 01:37:39;;;;;;;4.50;1.90;;;1.20;99.90;;;;;;5017320;28;20843;-71
2022/12/16 01:40:06;;;;;;;3.83;1.15;;;1.30;99.90;;;;;;5020848;28;20037;-71
2022/12/16 01:42:32;;;;;;;3.05;1.05;;;1.30;99.90;;;;;;5017865;28;20042;-70
2022/12/16 01:45:24;;;;;;;4.03;1.10;;;1.40;99.90;;;;;;5020410;28;20060;-71
2022/12/16 01:47:51;;;;;;;4.07;1.42;;;1.40;99.90;;;;;;5017898;28;20049;-70
2022/12/16 01:50:18;;;;;;;2.17;0.95;;;1.40;99.90;;;;;;5019148;28;20194;-70
2022/12/16 01:52:51;;;;;;;6.07;1.40;;;1.40;99.90;;;;;;5018751;28;20119;-71
2022/12/16 01:55:45;;;;;;;5.55;1.13;;;1.40;99.90;;;;;;5020424;28;20572;-70
2022/12/16 01:58:25;;;;;;;5.47;1.40;;;1.40;99.90;;;;;;5012878;28;20120;-71
2022/12/16 02:00:50;;;;;;;4.70;1.20;;;1.40;99.90;;;;;;5019251;28;20034;-70
2022/12/16 02:03:16;;;;;;;5.35;1.52;;;1.50;99.90;;;;;;5017701;28;20041;-70
2022/12/16 02:05:44;;;;;;;5.90;1.45;;;1.50;99.90;;;;;;5020533;28;20065;-70
2022/12/16 02:08:19;;;;;;;4.75;1.15;;;1.40;99.90;;;;;;5000065;28;20459;-70
2022/12/16 02:11:12;;;;;;;5.38;1.92;;;1.50;99.90;;;;;;5021245;28;20517;-72
2022/12/16 02:13:45;;;;;;;2.97;1.20;;;1.50;99.90;;;;;;5013880;28;20037;-72
2022/12/16 02:16:31;;;;;;;5.28;1.65;;;1.50;99.90;;;;;;5019163;28;20033;-72
2022/12/16 02:19:00;;;;;;;6.55;1.27;;;1.50;99.90;;;;;;5020632;28;20037;-71
2022/12/16 02:21:29;;;;;;;6.75;1.77;;;1.60;99.90;;;;;;5016721;28;20049;-72
2022/12/16 02:24:23;;;;;;;4.68;1.48;;;1.60;99.90;;;;;;5019625;28;20750;-72
2022/12/16 02:27:19;;;;;;;3.65;1.40;;;1.70;99.90;;;;;;5012441;28;20059;-71
2022/12/16 02:30:08;;;;;;;6.93;1.30;;;1.80;99.90;;;;;;5003879;28;20044;-71
2022/12/16 02:32:52;;;;;;;7.43;1.90;;;1.70;99.90;;;;;;5007761;28;20074;-71
2022/12/16 02:35:39;;;;;;;6.10;1.30;;;1.70;99.90;;;;;;5015988;28;20072;-71
2022/12/16 02:38:17;;;;;;;12.40;2.38;;;1.70;99.90;;;;;;5014626;28;20485;-72
2022/12/16 02:40:47;;;;;;;4.85;1.27;;;1.70;99.90;;;;;;5017997;28;20022;-71
2022/12/16 02:43:41;;;;;;;2.97;1.30;;;1.60;99.90;;;;;;5014771;28;20682;-72
2022/12/16 02:46:08;;;;;;;2.97;1.15;;;1.60;99.90;;;;;;5010397;28;20410;-70
2022/12/16 02:48:34;;;;;;;5.65;1.27;;;1.60;99.90;;;;;;4998550;28;20068;-71
2022/12/16 02:51:00;;;;;;;9.40;2.97;;;1.60;99.90;;;;;;5016669;28;20494;-72
2022/12/16 02:53:27;;;;;;;4.57;1.42;;;1.50;99.90;;;;;;5019120;28;20034;-72
2022/12/16 02:55:59;;;;;;;6.35;2.00;;;1.60;99.90;;;;;;5020216;28;20033;-72
2022/12/16 02:58:42;;;;;;;5.97;1.83;;;1.50;99.90;;;;;;5016921;28;20418;-72
2022/12/16 03:01:22;;;;;;;3.88;1.63;;;1.40;99.90;;;;;;5011839;28;20064;-70
2022/12/16 03:04:06;;;;;;;6.45;1.92;;;1.40;99.90;;;;;;5017861;28;20046;-72
2022/12/16 03:06:35;;;;;;;6.25;2.45;;;1.40;99.90;;;;;;5012716;28;20109;-72
2022/12/16 03:09:05;;;;;;;9.80;2.25;;;1.40;99.90;;;;;;5015976;28;20561;-72
2022/12/16 03:11:31;;;;;;;7.45;1.45;;;1.50;99.90;;;;;;5011999;28;20135;-69
2022/12/16 03:13:59;;;;;;;7.70;2.03;;;1.50;99.90;;;;;;5020610;28;20121;-71
2022/12/16 03:16:31;;;;;;;4.20;1.40;;;1.40;99.90;;;;;;5018495;28;20506;-70
2022/12/16 03:19:02;;;;;;;6.50;1.77;;;1.40;99.90;;;;;;5015945;28;20029;-70
2022/12/16 03:21:42;;;;;;;12.75;2.30;;;1.50;99.90;;;;;;5012200;28;20026;-71
2022/12/16 03:24:12;;;;;;;5.05;1.48;;;1.40;99.90;;;;;;5013966;28;20529;-72
2022/12/16 03:27:02;;;;;;;6.68;1.58;;;1.40;99.90;;;;;;5016701;28;20046;-70
2022/12/16 03:29:56;;;;;;;5.00;1.80;;;1.50;99.90;;;;;;5011670;28;20595;-71
2022/12/16 03:32:38;;;;;;;3.17;1.50;;;1.50;99.90;;;;;;5020227;28;20332;-71
2022/12/16 03:35:32;;;;;;;11.38;2.33;;;1.50;99.90;;;;;;5012971;28;20034;-70
2022/12/16 03:38:02;;;;;;;7.68;1.52;;;1.50;99.90;;;;;;5011918;28;20044;-71
2022/12/16 03:40:30;;;;;;;7.70;1.65;;;1.40;99.90;;;;;;5019553;28;20443;-71
2022/12/16 03:42:56;;;;;;;9.10;3.10;;;1.40;99.90;;;;;;5011997;28;20037;-70
2022/12/16 03:45:28;;;;;;;5.07;1.75;;;1.40;99.90;;;;;;5015167;28;20038;-71
2022/12/16 03:47:56;;;;;;;4.07;1.30;;;1.40;99.90;;;;;;5019304;28;20042;-71
2022/12/16 03:50:29;;;;;;;3.80;1.35;;;1.40;99.90;;;;;;5015293;28;20502;-70
2022/12/16 03:52:55;;;;;;;5.30;1.20;;;1.40;99.90;;;;;;5012327;28;20128;-70
2022/12/16 03:55:20;;;;;;;10.73;1.67;;;1.40;99.90;;;;;;5015816;28;20451;-71
2022/12/16 03:57:46;;;;;;;9.30;1.50;;;1.30;99.90;;;;;;5018500;28;20553;-70
2022/12/16 04:00:12;;;;;;;7.10;1.27;;;1.30;99.90;;;;;;5016879;28;20111;-70
2022/12/16 04:02:38;;;;;;;3.85;1.05;;;1.30;99.90;;;;;;4999639;28;20068;-70
2022/12/16 04:05:03;;;;;;;5.47;1.00;;;1.20;99.90;;;;;;5018370;28;20053;-71
2022/12/16 04:07:29;;;;;;;10.80;2.22;;;1.20;99.90;;;;;;5015641;28;20044;-71
2022/12/16 04:09:55;;;;;;;8.13;2.15;;;1.20;99.90;;;;;;5020246;28;20037;-71
2022/12/16 04:26:09;;;;;;;2.63;0.95;;;0.90;99.90;;;;;;5011575;28;20510;-71
2022/12/16 04:28:34;;;;;;;6.18;1.88;;;0.90;99.90;;;;;;5018005;28;20033;-72
2022/12/16 04:31:00;;;;;;;2.67;1.35;;;0.90;99.90;;;;;;5016319;28;20133;-72
